Time;durP1;ratioP1;P1;durP2;ratioP2;P2;SDS_P1;SDS_P2;PMS_P1;PMS_P2;Temp;Humidity;BMP_temperature;BMP_pressure;BME280_temperature;BME280_humidity;BME280_pressure;Samples;Min_cycle;Max_cycle;Signal;HPM_P1;HPM_P2
2023/05/29 00:00:08;;;;;;;10.90;5.40;;;11.90;91.20;;;;;;5081685;28;20024;-74
2023/05/29 00:02:35;;;;;;;14.60;6.13;;;11.90;91.00;;;;;;5081965;28;20366;-73
2023/05/29 00:05:02;;;;;;;12.43;6.22;;;11.90;90.60;;;;;;5096998;28;20032;-73
2023/05/29 00:07:29;;;;;;;11.55;5.55;;;12.00;90.80;;;;;;5095854;28;20024;-74
2023/05/29 00:09:55;;;;;;;13.75;5.85;;;12.00;90.40;;;;;;5099176;28;20486;-75
2023/05/29 00:12:21;;;;;;;10.50;5.40;;;12.00;90.20;;;;;;5081463;28;20033;-73
2023/05/29 00:14:48;;;;;;;11.20;5.32;;;12.00;89.90;;;;;;5082377;28;20021;-74
2023/05/29 00:17:15;;;;;;;15.10;5.88;;;12.10;90.10;;;;;;5100174;28;20028;-75
2023/05/29 00:19:41;;;;;;;15.07;5.80;;;12.00;90.00;;;;;;5100325;28;20024;-74
2023/05/29 00:22:06;;;;;;;11.35;5.80;;;12.00;89.90;;;;;;5099436;28;20027;-74
2023/05/29 00:24:32;;;;;;;14.10;5.43;;;11.90;90.50;;;;;;5080728;28;20037;-74
2023/05/29 00:26:58;;;;;;;11.80;5.50;;;11.90;91.10;;;;;;5098397;28;20028;-74
2023/05/29 00:29:23;;;;;;;11.77;5.70;;;11.80;91.20;;;;;;5101410;28;20055;-74
2023/05/29 00:31:49;;;;;;;9.70;5.13;;;11.70;91.80;;;;;;5090803;28;20039;-75
2023/05/29 00:34:14;;;;;;;10.10;5.75;;;11.70;92.10;;;;;;5081670;28;20068;-74
2023/05/29 00:36:40;;;;;;;11.15;5.30;;;11.60;92.10;;;;;;5090849;28;20048;-74
2023/05/29 00:39:06;;;;;;;11.25;5.53;;;11.60;92.00;;;;;;5084003;28;20028;-74
2023/05/29 00:41:31;;;;;;;11.45;5.68;;;11.60;92.20;;;;;;5081973;28;20029;-74
2023/05/29 00:44:03;;;;;;;11.10;5.05;;;11.60;92.00;;;;;;5063541;28;20032;-75
2023/05/29 00:46:31;;;;;;;10.05;4.97;;;11.60;91.90;;;;;;5088470;28;20113;-72
2023/05/29 00:48:58;;;;;;;12.25;5.20;;;11.60;92.00;;;;;;5086895;28;20024;-74
2023/05/29 00:51:25;;;;;;;12.00;5.00;;;11.50;92.00;;;;;;5109931;28;20468;-74
2023/05/29 00:53:53;;;;;;;10.70;5.55;;;11.50;92.40;;;;;;5093173;28;20031;-74
2023/05/29 00:56:20;;;;;;;12.60;5.60;;;11.50;92.70;;;;;;5097215;28;20039;-74
2023/05/29 00:58:51;;;;;;;9.48;5.18;;;11.40;93.00;;;;;;5083093;28;20109;-74
2023/05/29 01:01:18;;;;;;;11.48;6.13;;;11.30;93.10;;;;;;5085858;28;20028;-74
2023/05/29 01:03:45;;;;;;;11.48;5.82;;;11.30;93.20;;;;;;5078256;28;20028;-74
2023/05/29 01:06:11;;;;;;;14.00;5.97;;;11.30;93.30;;;;;;5078979;28;20028;-74
2023/05/29 01:08:36;;;;;;;13.73;6.22;;;11.10;93.80;;;;;;5086746;28;20012;-74
2023/05/29 01:11:33;;;;;;;10.77;5.10;;;11.10;93.80;;;;;;5097226;28;20038;-74
2023/05/29 01:14:09;;;;;;;10.27;5.63;;;11.10;93.80;;;;;;5098735;28;20020;-74
2023/05/29 01:16:51;;;;;;;12.23;5.75;;;11.10;93.50;;;;;;5081730;28;20052;-75
2023/05/29 01:19:47;;;;;;;13.32;5.95;;;11.10;93.80;;;;;;5098283;28;20381;-75
2023/05/29 01:22:35;;;;;;;10.48;6.05;;;11.10;94.10;;;;;;5094370;28;20047;-74
2023/05/29 01:25:21;;;;;;;11.70;5.88;;;11.00;94.40;;;;;;5084551;28;20100;-74
2023/05/29 01:27:48;;;;;;;9.50;5.07;;;10.90;94.50;;;;;;5087223;28;20035;-75
2023/05/29 01:30:15;;;;;;;11.75;5.35;;;10.80;94.60;;;;;;5080432;28;20019;-75
2023/05/29 01:32:41;;;;;;;12.40;5.82;;;10.80;94.70;;;;;;5093443;28;20107;-74
2023/05/29 01:35:07;;;;;;;12.50;5.68;;;10.80;95.10;;;;;;5097303;28;20410;-74
2023/05/29 01:37:33;;;;;;;13.43;5.70;;;10.70;95.10;;;;;;5094441;28;20044;-74
2023/05/29 01:39:59;;;;;;;12.23;5.82;;;10.70;95.40;;;;;;5073977;28;20480;-74
2023/05/29 01:42:27;;;;;;;13.50;6.07;;;10.70;95.50;;;;;;5087923;28;20074;-74
2023/05/29 01:44:54;;;;;;;11.60;5.82;;;10.60;95.80;;;;;;5094630;28;20035;-74
2023/05/29 01:47:20;;;;;;;11.95;5.30;;;10.60;95.60;;;;;;5067650;28;20031;-75
2023/05/29 01:49:48;;;;;;;12.90;5.72;;;10.60;95.40;;;;;;5086308;28;20189;-74
2023/05/29 01:52:14;;;;;;;11.60;6.10;;;10.50;95.50;;;;;;5074301;28;20029;-74
2023/05/29 01:54:39;;;;;;;12.20;5.22;;;10.30;96.00;;;;;;5098569;28;20054;-74
2023/05/29 01:57:06;;;;;;;12.90;5.55;;;10.20;96.30;;;;;;5090485;28;20020;-74
2023/05/29 01:59:33;;;;;;;13.65;5.97;;;10.10;96.50;;;;;;5079949;28;20027;-75
2023/05/29 02:02:08;;;;;;;11.75;5.75;;;10.20;96.50;;;;;;5089578;28;20028;-74
2023/05/29 02:04:33;;;;;;;12.60;6.20;;;10.20;96.40;;;;;;5086174;28;20032;-74
2023/05/29 02:06:59;;;;;;;12.95;6.00;;;10.20;96.20;;;;;;5079608;28;20016;-75
2023/05/29 02:09:25;;;;;;;11.43;5.30;;;10.20;96.10;;;;;;5089803;28;20028;-74
2023/05/29 02:11:51;;;;;;;13.15;5.90;;;10.00;96.50;;;;;;5091194;28;20058;-73
2023/05/29 02:14:16;;;;;;;9.13;5.28;;;9.90;96.90;;;;;;5091026;28;20063;-74
2023/05/29 02:16:43;;;;;;;12.23;5.30;;;9.80;97.20;;;;;;5083148;28;20375;-73
2023/05/29 02:19:09;;;;;;;11.55;5.80;;;9.70;97.40;;;;;;5075116;28;20023;-73
2023/05/29 02:21:42;;;;;;;9.13;5.43;;;9.60;97.40;;;;;;5086259;28;20094;-73
2023/05/29 02:24:07;;;;;;;10.90;6.07;;;9.60;97.50;;;;;;5057937;28;20032;-73
2023/05/29 02:26:36;;;;;;;9.75;5.35;;;9.50;97.50;;;;;;5067744;28;20032;-73
2023/05/29 02:29:02;;;;;;;10.55;5.85;;;9.50;97.50;;;;;;5076461;28;20024;-72
2023/05/29 02:31:28;;;;;;;12.98;6.10;;;9.40;97.60;;;;;;5081030;28;20040;-72
2023/05/29 02:33:54;;;;;;;10.77;5.82;;;9.30;97.60;;;;;;5081506;28;20060;-73
2023/05/29 02:36:20;;;;;;;12.48;5.93;;;9.20;97.50;;;;;;5087089;28;20044;-73
2023/05/29 02:38:45;;;;;;;13.90;6.35;;;9.20;97.60;;;;;;5075859;28;20143;-73
2023/05/29 02:41:11;;;;;;;12.20;6.13;;;9.20;97.80;;;;;;5078752;28;20103;-72
2023/05/29 02:43:37;;;;;;;12.00;5.70;;;9.30;97.90;;;;;;5076725;28;20031;-74
2023/05/29 02:46:02;;;;;;;11.63;6.30;;;9.40;98.00;;;;;;5082156;28;20333;-73
2023/05/29 02:48:29;;;;;;;13.07;6.03;;;9.40;97.80;;;;;;5078352;28;20294;-73
2023/05/29 02:50:54;;;;;;;14.77;6.20;;;9.30;97.60;;;;;;5078810;28;20384;-72
2023/05/29 02:53:23;;;;;;;12.13;6.10;;;9.20;97.80;;;;;;5089207;28;20029;-74
2023/05/29 02:55:49;;;;;;;12.02;6.15;;;9.20;97.70;;;;;;5079247;28;20066;-73
2023/05/29 02:58:16;;;;;;;11.95;5.43;;;9.10;97.60;;;;;;5087045;28;20036;-73
2023/05/29 03:00:43;;;;;;;13.82;6.82;;;9.10;97.80;;;;;;5076089;28;20051;-73
2023/05/29 03:03:16;;;;;;;17.08;7.47;;;9.10;98.00;;;;;;5077704;28;20037;-73
2023/05/29 03:05:41;;;;;;;11.85;6.07;;;9.10;97.70;;;;;;5061324;28;20359;-73
2023/05/29 03:08:07;;;;;;;13.20;6.30;;;9.30;98.00;;;;;;5088408;28;20024;-73
2023/05/29 03:10:33;;;;;;;12.55;5.97;;;9.40;98.00;;;;;;5094266;28;20055;-72
2023/05/29 03:12:58;;;;;;;12.23;6.35;;;9.40;97.60;;;;;;5086343;28;20417;-73
2023/05/29 03:15:25;;;;;;;16.58;6.68;;;9.40;97.60;;;;;;5080316;28;20036;-73
2023/05/29 03:17:50;;;;;;;12.98;6.35;;;9.30;97.80;;;;;;5075740;28;20028;-73
2023/05/29 03:20:18;;;;;;;11.85;6.28;;;9.20;97.80;;;;;;5089296;28;20034;-73
2023/05/29 03:22:44;;;;;;;11.07;6.57;;;9.10;97.70;;;;;;5093013;28;20028;-73
2023/05/29 03:25:09;;;;;;;11.02;6.07;;;8.90;97.60;;;;;;5093510;28;20024;-73
2023/05/29 03:27:35;;;;;;;13.60;7.10;;;8.70;97.30;;;;;;5094112;28;20016;-75
2023/05/29 03:30:01;;;;;;;12.35;6.72;;;8.60;96.70;;;;;;5076364;28;20043;-73
2023/05/29 03:32:26;;;;;;;15.05;6.43;;;8.70;96.90;;;;;;5094674;28;20355;-74
2023/05/29 03:34:52;;;;;;;14.63;6.65;;;8.80;97.50;;;;;;5094230;28;20020;-72
2023/05/29 03:37:18;;;;;;;10.85;5.80;;;9.00;98.00;;;;;;5091665;28;20101;-72
2023/05/29 03:39:44;;;;;;;11.93;6.38;;;9.10;98.00;;;;;;5090327;28;20429;-73
2023/05/29 03:42:10;;;;;;;14.35;6.25;;;9.30;98.00;;;;;;5084869;28;20116;-73
2023/05/29 03:44:36;;;;;;;14.45;7.28;;;9.30;98.00;;;;;;5085943;28;20487;-73
2023/05/29 03:47:02;;;;;;;11.30;6.07;;;9.30;97.90;;;;;;5094061;28;20070;-72
2023/05/29 03:49:27;;;;;;;12.30;6.47;;;9.30;98.00;;;;;;5064483;28;20024;-72
2023/05/29 03:51:53;;;;;;;10.02;5.68;;;9.30;98.00;;;;;;5075729;28;20024;-74
2023/05/29 03:54:19;;;;;;;11.40;6.22;;;9.20;97.90;;;;;;5078102;28;20039;-74
2023/05/29 03:56:45;;;;;;;11.57;6.43;;;9.20;97.70;;;;;;5080218;28;20051;-74
2023/05/29 03:59:10;;;;;;;14.30;5.88;;;9.40;98.00;;;;;;5085232;28;20032;-74
2023/05/29 04:01:36;;;;;;;13.23;6.00;;;10.00;98.00;;;;;;5092576;28;20077;-73
2023/05/29 04:04:02;;;;;;;11.73;6.45;;;10.90;95.60;;;;;;5090575;28;20043;-75
2023/05/29 04:06:27;;;;;;;12.32;6.10;;;11.30;94.30;;;;;;5084112;28;20430;-72
2023/05/29 04:08:53;;;;;;;11.25;5.55;;;11.20;94.70;;;;;;5081669;28;20051;-74
2023/05/29 04:11:22;;;;;;;12.15;6.22;;;10.80;95.40;;;;;;5088735;28;20314;-73
2023/05/29 04:13:48;;;;;;;12.80;6.50;;;10.40;96.10;;;;;;5079354;28;20021;-73
2023/05/29 04:16:14;;;;;;;10.82;6.03;;;10.10;96.70;;;;;;5079223;28;20430;-73
2023/05/29 04:18:40;;;;;;;11.25;6.22;;;10.00;97.10;;;;;;5075032;28;20166;-73
2023/05/29 04:21:06;;;;;;;24.00;15.98;;;9.90;97.50;;;;;;5091087;28;20429;-74
2023/05/29 04:23:32;;;;;;;11.80;6.28;;;9.80;97.60;;;;;;5078847;28;20029;-73
2023/05/29 04:25:58;;;;;;;12.90;6.78;;;9.80;97.60;;;;;;5058145;28;20036;-73
2023/05/29 04:28:24;;;;;;;13.45;6.68;;;9.90;97.70;;;;;;5085015;28;20166;-74
2023/05/29 04:30:49;;;;;;;13.52;7.25;;;10.00;97.60;;;;;;5096412;28;20070;-74
2023/05/29 04:33:17;;;;;;;14.15;6.93;;;10.10;97.90;;;;;;5098315;28;20363;-74
2023/05/29 04:35:42;;;;;;;14.75;7.32;;;10.10;97.70;;;;;;5065591;28;20043;-74
2023/05/29 04:38:09;;;;;;;14.35;6.90;;;10.30;97.60;;;;;;5083594;28;20115;-74
2023/05/29 04:40:36;;;;;;;13.20;7.43;;;10.30;97.60;;;;;;5076995;28;20027;-74
2023/05/29 04:43:02;;;;;;;12.00;6.93;;;10.30;97.50;;;;;;5094393;28;20028;-73
2023/05/29 04:45:28;;;;;;;13.60;7.53;;;10.30;97.70;;;;;;5061029;28;20170;-74
2023/05/29 04:47:54;;;;;;;11.65;6.75;;;10.40;97.80;;;;;;5078648;28;20099;-73
2023/05/29 04:50:22;;;;;;;14.05;6.65;;;10.40;97.90;;;;;;5063971;28;20028;-74
2023/05/29 04:52:48;;;;;;;11.43;6.15;;;10.50;97.90;;;;;;5088722;28;20102;-74
2023/05/29 04:55:14;;;;;;;12.40;6.13;;;10.50;97.80;;;;;;5077287;28;20032;-75
2023/05/29 04:57:40;;;;;;;10.50;5.75;;;10.50;97.80;;;;;;5079979;28;20036;-74
2023/05/29 05:00:08;;;;;;;12.10;6.20;;;10.50;97.90;;;;;;5095252;28;20325;-74
2023/05/29 05:02:33;;;;;;;15.60;6.40;;;10.50;98.00;;;;;;5094586;28;20024;-74
2023/05/29 05:04:59;;;;;;;10.82;6.28;;;10.50;98.00;;;;;;5078414;28;20074;-74
2023/05/29 05:07:25;;;;;;;10.90;6.30;;;10.60;97.90;;;;;;5078127;28;20028;-74
2023/05/29 05:09:50;;;;;;;10.77;6.50;;;10.70;98.00;;;;;;5077867;28;20032;-74
2023/05/29 05:12:16;;;;;;;13.48;6.80;;;10.70;98.00;;;;;;5092762;28;20422;-76
2023/05/29 05:14:42;;;;;;;15.32;6.78;;;10.80;98.00;;;;;;5095576;28;20028;-75
2023/05/29 05:17:07;;;;;;;12.40;7.18;;;10.80;97.90;;;;;;5080141;28;20421;-75
2023/05/29 05:19:33;;;;;;;13.80;6.68;;;10.90;97.90;;;;;;5081845;28;20028;-75
2023/05/29 05:21:58;;;;;;;14.23;7.15;;;11.00;97.80;;;;;;5098380;28;20028;-75
2023/05/29 05:24:24;;;;;;;17.90;7.50;;;11.10;97.70;;;;;;5096788;28;20024;-74
2023/05/29 05:26:49;;;;;;;14.20;6.88;;;11.30;97.50;;;;;;5096024;28;20036;-74
2023/05/29 05:29:15;;;;;;;14.35;6.07;;;11.40;97.50;;;;;;5087612;28;20056;-74
2023/05/29 05:31:40;;;;;;;13.55;7.47;;;11.60;97.20;;;;;;5097512;28;20016;-74
2023/05/29 05:34:06;;;;;;;12.98;6.45;;;11.80;96.70;;;;;;5094461;28;20054;-74
2023/05/29 05:36:32;;;;;;;12.07;6.82;;;12.00;96.50;;;;;;5077197;28;20074;-76
2023/05/29 05:38:59;;;;;;;15.10;7.15;;;12.20;95.60;;;;;;5079607;28;20142;-74
2023/05/29 05:41:25;;;;;;;12.20;6.78;;;12.40;95.10;;;;;;5078716;28;20100;-75
2023/05/29 05:43:53;;;;;;;11.77;6.38;;;12.50;94.20;;;;;;5079092;28;20060;-76
2023/05/29 05:46:19;;;;;;;14.70;7.32;;;12.70;93.80;;;;;;5077310;28;20488;-76
2023/05/29 05:48:44;;;;;;;14.68;7.00;;;13.00;92.40;;;;;;5089111;28;20036;-75
2023/05/29 05:51:11;;;;;;;12.35;6.82;;;13.20;91.20;;;;;;5086954;28;20427;-75
2023/05/29 05:53:36;;;;;;;12.50;6.43;;;13.40;90.80;;;;;;5081992;28;20028;-74
2023/05/29 05:56:02;;;;;;;14.15;6.85;;;13.60;89.60;;;;;;5060992;28;21325;-75
2023/05/29 05:58:28;;;;;;;13.75;6.60;;;13.70;89.20;;;;;;5064918;28;20030;-75
2023/05/29 06:00:53;;;;;;;12.88;6.57;;;13.80;88.20;;;;;;5080658;28;20028;-75
2023/05/29 06:03:19;;;;;;;15.90;7.57;;;14.10;87.10;;;;;;5079683;28;20081;-74
2023/05/29 06:05:44;;;;;;;13.68;7.03;;;14.20;86.50;;;;;;5072476;28;20024;-75
2023/05/29 06:08:10;;;;;;;12.02;6.35;;;14.40;86.50;;;;;;5078620;28;20036;-75
2023/05/29 06:10:35;;;;;;;11.65;6.13;;;14.50;86.90;;;;;;5081323;28;20409;-75
2023/05/29 06:13:01;;;;;;;12.52;6.60;;;14.60;87.50;;;;;;5091461;28;20467;-75
2023/05/29 06:15:27;;;;;;;13.32;6.60;;;14.60;87.40;;;;;;5089601;28;20059;-75
2023/05/29 06:17:55;;;;;;;13.50;6.88;;;14.50;87.00;;;;;;5085116;28;20056;-76
2023/05/29 06:20:21;;;;;;;14.20;7.07;;;14.60;86.50;;;;;;5078637;28;20629;-75
2023/05/29 06:22:50;;;;;;;12.98;6.68;;;14.80;86.60;;;;;;5093486;28;20048;-75
2023/05/29 06:25:16;;;;;;;16.02;7.68;;;14.90;86.10;;;;;;5084242;28;20090;-75
2023/05/29 06:27:42;;;;;;;14.55;7.65;;;15.00;86.80;;;;;;5093152;28;20051;-75
2023/05/29 06:30:08;;;;;;;15.25;7.05;;;14.90;87.10;;;;;;5090922;28;20063;-75
2023/05/29 06:32:33;;;;;;;15.25;6.57;;;15.00;86.50;;;;;;5092636;28;20051;-75
2023/05/29 06:34:59;;;;;;;16.48;7.80;;;15.00;87.20;;;;;;5089479;28;20066;-75
2023/05/29 06:37:25;;;;;;;14.55;7.13;;;15.20;88.40;;;;;;5093146;28;20043;-74
2023/05/29 06:39:50;;;;;;;11.23;6.90;;;15.30;89.40;;;;;;5082174;28;20035;-76
2023/05/29 06:42:16;;;;;;;14.23;6.97;;;15.30;89.40;;;;;;5076576;28;20035;-75
2023/05/29 06:44:41;;;;;;;13.40;6.80;;;15.40;89.40;;;;;;5095397;28;20080;-75
2023/05/29 06:47:07;;;;;;;12.90;6.93;;;15.50;89.20;;;;;;5081557;28;20110;-75
2023/05/29 06:49:32;;;;;;;11.98;6.68;;;15.50;89.40;;;;;;5078980;28;20036;-76
2023/05/29 06:51:58;;;;;;;11.73;6.70;;;15.50;89.30;;;;;;5076744;28;20029;-75
2023/05/29 06:54:24;;;;;;;12.88;6.32;;;15.60;88.70;;;;;;5089479;28;20039;-75
2023/05/29 06:56:49;;;;;;;14.23;7.68;;;15.70;89.00;;;;;;5076164;28;20184;-75
2023/05/29 06:59:15;;;;;;;12.10;6.40;;;15.70;88.80;;;;;;5076258;28;20028;-76
2023/05/29 07:01:40;;;;;;;12.35;6.57;;;15.70;89.10;;;;;;5085814;28;20024;-75
2023/05/29 07:04:06;;;;;;;13.18;6.82;;;15.90;89.40;;;;;;5087003;28;20321;-76
2023/05/29 07:06:33;;;;;;;12.68;7.20;;;16.10;89.00;;;;;;5085706;28;20050;-76
2023/05/29 07:08:59;;;;;;;12.38;6.63;;;16.30;88.40;;;;;;5089582;28;20409;-75
2023/05/29 07:11:26;;;;;;;13.77;6.80;;;16.40;88.90;;;;;;5068131;28;20032;-76
2023/05/29 07:13:53;;;;;;;15.50;7.13;;;16.60;88.60;;;;;;5083256;28;20021;-76
2023/05/29 07:16:21;;;;;;;11.70;7.03;;;16.90;88.10;;;;;;5083893;28;20420;-76
2023/05/29 07:18:50;;;;;;;12.50;6.63;;;17.10;87.30;;;;;;5093200;28;20024;-76
2023/05/29 07:21:17;;;;;;;13.73;7.05;;;17.20;87.20;;;;;;5078084;28;20484;-75
2023/05/29 07:23:42;;;;;;;11.90;6.30;;;17.20;87.10;;;;;;5094051;28;20053;-76
2023/05/29 07:26:08;;;;;;;12.38;6.50;;;17.60;86.70;;;;;;5093505;28;20028;-76
2023/05/29 07:28:33;;;;;;;11.30;6.88;;;18.60;85.50;;;;;;5077761;28;20028;-75
2023/05/29 07:30:59;;;;;;;11.88;6.47;;;19.20;83.30;;;;;;5081026;28;20035;-76
2023/05/29 07:33:25;;;;;;;10.48;6.07;;;19.70;81.80;;;;;;5095099;28;20024;-76
2023/05/29 07:35:50;;;;;;;11.70;6.70;;;20.20;81.00;;;;;;5094923;28;20048;-75
2023/05/29 07:38:16;;;;;;;14.43;7.40;;;20.50;78.80;;;;;;5089778;28;20033;-75
2023/05/29 07:40:41;;;;;;;22.88;6.97;;;20.00;78.80;;;;;;5074830;28;20106;-75
2023/05/29 07:43:07;;;;;;;15.50;7.22;;;19.90;79.30;;;;;;5088285;28;20314;-75
2023/05/29 07:45:34;;;;;;;12.32;6.88;;;20.00;78.20;;;;;;5075434;28;20329;-75
2023/05/29 07:48:00;;;;;;;11.25;6.05;;;20.10;78.70;;;;;;5077934;28;20427;-75
2023/05/29 07:50:25;;;;;;;12.52;5.95;;;20.40;77.30;;;;;;5091325;28;20070;-75
2023/05/29 07:52:51;;;;;;;10.40;6.45;;;20.90;76.80;;;;;;5078972;28;20025;-75
2023/05/29 07:55:16;;;;;;;13.98;6.60;;;21.50;74.90;;;;;;5083557;28;20444;-75
2023/05/29 07:57:42;;;;;;;10.55;5.43;;;21.60;73.80;;;;;;5059797;28;20576;-75
2023/05/29 08:00:08;;;;;;;10.75;6.10;;;21.70;73.60;;;;;;5087756;28;20032;-76
2023/05/29 08:02:36;;;;;;;13.15;6.47;;;22.50;72.70;;;;;;5079419;28;20032;-75
2023/05/29 08:05:02;;;;;;;12.90;6.45;;;21.70;72.80;;;;;;5089511;28;20108;-76
2023/05/29 08:07:28;;;;;;;11.82;6.30;;;21.20;74.20;;;;;;5079208;28;20025;-75
2023/05/29 08:09:54;;;;;;;13.35;7.20;;;20.70;75.40;;;;;;5061833;28;20066;-75
2023/05/29 08:12:20;;;;;;;12.75;6.70;;;20.70;75.80;;;;;;5085262;28;20086;-75
2023/05/29 08:14:45;;;;;;;10.77;6.35;;;20.50;74.20;;;;;;5080236;28;20108;-75
2023/05/29 08:17:11;;;;;;;11.30;6.45;;;20.50;73.20;;;;;;5093156;28;20087;-75
2023/05/29 08:19:37;;;;;;;18.10;6.50;;;20.30;73.90;;;;;;5085195;28;20024;-74
2023/05/29 08:22:02;;;;;;;10.10;5.72;;;20.40;73.60;;;;;;5072656;28;20089;-74
2023/05/29 08:24:28;;;;;;;14.38;6.43;;;20.80;73.40;;;;;;5078846;28;20028;-74
2023/05/29 08:26:53;;;;;;;10.85;6.07;;;21.40;73.10;;;;;;5079456;28;20035;-74
2023/05/29 08:29:19;;;;;;;13.38;6.35;;;21.90;71.40;;;;;;5098589;28;20302;-75
2023/05/29 08:31:52;;;;;;;11.90;5.68;;;22.10;70.50;;;;;;5096778;28;20073;-75
2023/05/29 08:34:18;;;;;;;10.75;5.88;;;22.60;71.20;;;;;;5082070;28;20421;-76
2023/05/29 08:36:45;;;;;;;14.07;5.93;;;23.10;68.90;;;;;;5081585;28;20056;-76
2023/05/29 08:39:10;;;;;;;10.38;5.72;;;23.50;68.40;;;;;;5083548;28;20063;-76
2023/05/29 08:41:51;;;;;;;14.80;6.28;;;23.70;69.00;;;;;;5080411;28;20060;-75
2023/05/29 08:44:22;;;;;;;15.52;6.47;;;23.90;66.40;;;;;;5083683;28;20417;-76
2023/05/29 08:46:54;;;;;;;11.05;6.13;;;23.80;68.10;;;;;;5093418;28;20032;-75
2023/05/29 08:49:22;;;;;;;11.65;6.15;;;24.20;67.70;;;;;;5096906;28;20024;-75
2023/05/29 08:52:02;;;;;;;11.43;6.20;;;24.30;67.80;;;;;;5089115;28;20099;-75
2023/05/29 08:54:31;;;;;;;14.00;6.30;;;24.80;66.30;;;;;;5087972;28;20120;-76
2023/05/29 08:56:58;;;;;;;9.82;5.95;;;24.80;65.90;;;;;;5084451;28;20024;-75
2023/05/29 08:59:25;;;;;;;13.07;6.43;;;24.30;67.20;;;;;;5087028;28;20020;-75
2023/05/29 09:01:51;;;;;;;10.23;6.03;;;24.50;67.10;;;;;;5085357;28;20412;-74
2023/05/29 09:04:18;;;;;;;11.68;6.32;;;24.60;67.70;;;;;;5095835;28;20028;-75
2023/05/29 09:06:44;;;;;;;10.35;6.10;;;25.00;66.70;;;;;;5093774;28;20159;-75
2023/05/29 09:09:10;;;;;;;11.32;6.55;;;24.90;67.20;;;;;;5091391;28;20024;-75
2023/05/29 09:11:41;;;;;;;9.98;6.00;;;24.50;68.70;;;;;;5099068;28;20039;-74
2023/05/29 09:14:31;;;;;;;12.82;6.10;;;24.70;67.60;;;;;;5093505;28;20408;-75
2023/05/29 09:16:57;;;;;;;13.77;6.57;;;25.20;66.60;;;;;;5092598;28;20043;-75
2023/05/29 09:19:25;;;;;;;13.05;5.88;;;25.00;66.50;;;;;;5093567;28;20356;-76
2023/05/29 09:21:50;;;;;;;10.88;6.40;;;25.20;66.50;;;;;;5096230;28;20065;-77
2023/05/29 09:24:16;;;;;;;11.80;6.60;;;25.40;66.30;;;;;;5095821;28;20028;-76
2023/05/29 09:26:49;;;;;;;8.73;5.57;;;25.50;64.80;;;;;;5092642;28;20028;-76
2023/05/29 09:29:16;;;;;;;14.32;6.68;;;25.90;66.20;;;;;;5093020;28;20012;-75
2023/05/29 09:31:48;;;;;;;12.90;5.88;;;26.40;64.10;;;;;;5090848;28;20024;-75
2023/05/29 09:34:14;;;;;;;12.75;6.00;;;26.70;63.40;;;;;;5075152;28;20031;-75
2023/05/29 09:36:51;;;;;;;12.23;6.05;;;26.50;62.30;;;;;;5091920;28;20047;-74
2023/05/29 09:39:19;;;;;;;11.20;5.85;;;25.90;62.60;;;;;;5084355;28;20028;-75
2023/05/29 09:41:46;;;;;;;12.63;6.55;;;25.90;64.20;;;;;;5083094;28;20375;-76
2023/05/29 09:44:15;;;;;;;10.73;6.28;;;25.80;64.20;;;;;;5087116;28;20067;-76
2023/05/29 09:46:46;;;;;;;12.65;6.07;;;26.10;64.40;;;;;;5090701;28;20028;-75
2023/05/29 09:49:13;;;;;;;14.40;6.03;;;25.90;63.60;;;;;;5078399;28;20077;-75
2023/05/29 09:51:39;;;;;;;10.75;6.07;;;25.00;65.40;;;;;;5093685;28;20377;-75
2023/05/29 09:54:17;;;;;;;9.77;6.15;;;25.00;65.70;;;;;;5094746;28;20115;-73
2023/05/29 09:56:44;;;;;;;9.10;5.50;;;26.00;63.30;;;;;;5082631;28;20036;-75
2023/05/29 09:59:15;;;;;;;10.48;5.78;;;26.30;64.00;;;;;;5072516;28;20119;-75
2023/05/29 10:01:43;;;;;;;12.52;6.07;;;26.30;63.20;;;;;;5091225;28;20077;-74
2023/05/29 10:04:10;;;;;;;10.00;5.35;;;26.40;62.70;;;;;;5084118;28;20032;-75
2023/05/29 10:06:43;;;;;;;10.20;6.03;;;27.00;63.70;;;;;;5080437;28;20028;-75
2023/05/29 10:09:11;;;;;;;9.88;4.95;;;27.70;60.40;;;;;;5081681;28;20368;-75
2023/05/29 10:11:41;;;;;;;10.02;5.22;;;26.90;61.70;;;;;;5059661;28;20024;-75
2023/05/29 10:14:11;;;;;;;10.55;6.03;;;26.70;61.90;;;;;;5064354;28;20106;-74
2023/05/29 10:16:41;;;;;;;13.07;5.70;;;26.50;62.40;;;;;;5076244;28;20056;-75
2023/05/29 10:19:12;;;;;;;12.50;6.05;;;26.40;62.30;;;;;;5092637;28;20027;-75
2023/05/29 10:21:39;;;;;;;9.90;5.60;;;26.60;62.00;;;;;;5105699;28;20028;-75
2023/05/29 10:24:07;;;;;;;9.25;5.38;;;27.10;62.10;;;;;;5076917;28;20055;-75
2023/05/29 10:26:36;;;;;;;11.07;5.65;;;27.40;59.80;;;;;;5096261;28;20293;-75
2023/05/29 10:29:24;;;;;;;9.65;5.50;;;27.80;59.30;;;;;;5067710;28;20048;-76
2023/05/29 10:32:07;;;;;;;9.70;5.20;;;27.90;59.10;;;;;;5095315;28;20024;-74
2023/05/29 10:34:56;;;;;;;10.20;5.03;;;27.50;58.50;;;;;;5077675;28;20450;-76
2023/05/29 10:37:28;;;;;;;10.90;6.20;;;27.40;58.20;;;;;;5104176;28;20052;-75
2023/05/29 10:39:53;;;;;;;11.45;5.47;;;27.00;58.20;;;;;;5063833;28;20364;-75
2023/05/29 10:42:44;;;;;;;7.97;4.80;;;26.80;58.30;;;;;;5087685;28;20020;-75
2023/05/29 10:45:12;;;;;;;9.27;5.07;;;27.20;57.00;;;;;;5058244;28;20031;-75
2023/05/29 10:47:39;;;;;;;9.07;4.78;;;28.40;55.90;;;;;;5074116;28;20081;-75
2023/05/29 10:50:05;;;;;;;14.57;5.18;;;28.10;55.60;;;;;;5065247;28;20431;-75
2023/05/29 10:52:34;;;;;;;9.80;4.78;;;28.20;58.20;;;;;;5067246;28;20056;-75
2023/05/29 10:55:03;;;;;;;9.70;5.20;;;28.50;55.00;;;;;;5092528;28;20028;-75
2023/05/29 10:57:30;;;;;;;9.40;4.93;;;28.50;57.40;;;;;;5085490;28;20101;-73
2023/05/29 11:00:11;;;;;;;7.60;4.63;;;28.70;55.80;;;;;;5076119;28;20021;-75
2023/05/29 11:02:38;;;;;;;8.40;5.13;;;28.30;57.00;;;;;;5085852;28;20027;-75
2023/05/29 11:05:05;;;;;;;9.90;5.45;;;27.50;57.40;;;;;;5088821;28;20069;-75
2023/05/29 11:08:03;;;;;;;8.88;5.10;;;26.50;59.20;;;;;;5083708;28;20475;-74
2023/05/29 11:10:55;;;;;;;8.60;5.10;;;26.10;59.80;;;;;;5074666;28;20051;-74
2023/05/29 11:13:34;;;;;;;11.55;5.00;;;25.70;60.50;;;;;;5092045;28;20030;-75
2023/05/29 11:16:25;;;;;;;9.65;5.30;;;26.80;60.90;;;;;;5081314;28;20028;-74
2023/05/29 11:18:52;;;;;;;10.65;5.18;;;27.20;57.20;;;;;;5091262;28;20028;-74
2023/05/29 11:21:38;;;;;;;11.63;5.18;;;27.50;57.50;;;;;;5079644;28;20033;-73
2023/05/29 11:24:06;;;;;;;9.27;4.68;;;27.20;56.10;;;;;;5068391;28;20035;-76
2023/05/29 11:26:33;;;;;;;9.30;5.57;;;27.10;58.50;;;;;;5088111;28;20235;-74
2023/05/29 11:29:06;;;;;;;8.73;5.20;;;27.80;58.00;;;;;;5081569;28;20041;-76
2023/05/29 11:31:34;;;;;;;10.43;5.00;;;28.00;56.70;;;;;;5094423;28;20032;-77
2023/05/29 11:34:05;;;;;;;8.32;4.97;;;27.20;56.50;;;;;;5090076;28;20032;-76
2023/05/29 11:36:32;;;;;;;10.23;4.70;;;25.90;60.30;;;;;;5079003;28;20042;-75
2023/05/29 11:38:59;;;;;;;9.30;5.05;;;25.80;60.50;;;;;;5072034;28;20081;-76
2023/05/29 11:41:26;;;;;;;11.52;5.25;;;25.80;59.90;;;;;;5085300;28;20029;-76
2023/05/29 11:44:02;;;;;;;10.30;5.68;;;25.70;61.30;;;;;;5086854;28;20039;-75
2023/05/29 11:46:32;;;;;;;10.75;5.40;;;26.40;59.80;;;;;;5073232;28;20126;-74
2023/05/29 11:49:00;;;;;;;8.00;4.28;;;27.20;57.50;;;;;;5089059;28;20105;-75
2023/05/29 11:51:27;;;;;;;8.40;4.90;;;26.90;57.10;;;;;;5091567;28;20038;-75
2023/05/29 11:53:57;;;;;;;11.30;4.93;;;26.60;58.00;;;;;;5089494;28;20039;-74
2023/05/29 11:56:25;;;;;;;9.23;4.45;;;26.40;57.70;;;;;;5095862;28;20039;-75
2023/05/29 11:58:51;;;;;;;9.27;4.65;;;26.60;59.40;;;;;;5077008;28;20073;-75
2023/05/29 12:01:19;;;;;;;9.65;4.38;;;26.90;56.50;;;;;;5094910;28;20107;-76
2023/05/29 12:03:48;;;;;;;9.07;5.45;;;26.30;57.90;;;;;;5094025;28;20024;-75
2023/05/29 12:06:15;;;;;;;7.03;4.30;;;26.60;59.80;;;;;;5088374;28;20024;-76
2023/05/29 12:08:41;;;;;;;8.70;4.57;;;27.40;56.90;;;;;;5093716;28;20741;-74
2023/05/29 12:11:06;;;;;;;9.40;4.63;;;27.20;56.00;;;;;;5094731;28;20020;-76
2023/05/29 12:13:33;;;;;;;10.32;4.55;;;26.90;56.40;;;;;;5080656;28;20086;-75
2023/05/29 12:16:04;;;;;;;9.18;4.15;;;26.30;56.50;;;;;;5085177;28;20032;-76
2023/05/29 12:18:30;;;;;;;12.80;4.88;;;26.10;57.80;;;;;;5076921;28;20107;-74
2023/05/29 12:21:04;;;;;;;8.48;3.80;;;26.50;58.10;;;;;;5060761;28;20111;-74
2023/05/29 12:23:30;;;;;;;9.38;4.97;;;27.00;57.90;;;;;;5084767;28;20035;-74
2023/05/29 12:25:56;;;;;;;9.73;4.97;;;27.40;56.90;;;;;;5076745;28;20043;-75
2023/05/29 12:28:22;;;;;;;13.52;4.60;;;28.00;56.70;;;;;;5077732;28;20017;-75
2023/05/29 12:30:49;;;;;;;7.43;4.00;;;27.80;53.20;;;;;;5076351;28;20027;-74
2023/05/29 12:33:32;;;;;;;6.75;3.70;;;27.90;57.10;;;;;;5092362;28;20028;-75
2023/05/29 12:36:06;;;;;;;9.25;4.30;;;28.70;55.10;;;;;;5088395;28;20044;-75
2023/05/29 12:38:32;;;;;;;9.40;4.25;;;28.90;53.50;;;;;;5092403;28;20028;-74
2023/05/29 12:40:57;;;;;;;9.98;4.13;;;29.40;52.50;;;;;;5093128;28;20047;-75
2023/05/29 12:43:23;;;;;;;7.82;3.92;;;29.50;52.10;;;;;;5095380;28;20024;-74